createdAt,value
2022-11-13T00:01:26.609Z,76.38
2022-11-13T00:04:12.736Z,77.97
2022-11-13T00:06:59.527Z,71.50
2022-11-13T00:09:45.167Z,70.13
2022-11-13T00:12:31.005Z,74.30
2022-11-13T00:15:16.677Z,71.50
2022-11-13T00:18:03.123Z,69.55
2022-11-13T00:20:48.824Z,71.95
2022-11-13T00:23:35.457Z,81.45
2022-11-13T00:26:23.747Z,79.65
2022-11-13T00:29:09.465Z,80.72
2022-11-13T00:31:55.303Z,90.45
2022-11-13T00:34:47.465Z,78.40
2022-11-13T00:37:33.372Z,82.75
2022-11-13T00:40:19.297Z,77.60
2022-11-13T00:43:04.465Z,77.82
2022-11-13T00:45:50.249Z,76.88
2022-11-13T00:48:36.370Z,85.30
2022-11-13T00:51:22.312Z,78.50
2022-11-13T00:54:07.637Z,84.85
2022-11-13T00:56:53.058Z,91.10
2022-11-13T00:59:38.357Z,98.00
2022-11-13T01:02:24.051Z,86.18
2022-11-13T01:05:09.820Z,86.65
2022-11-13T01:07:55.388Z,82.18
2022-11-13T01:10:44.741Z,82.97
2022-11-13T01:13:31.198Z,81.03
2022-11-13T01:16:18.952Z,93.18
2022-11-13T01:19:04.809Z,113.32
2022-11-13T01:21:49.888Z,79.75
2022-11-13T01:24:35.718Z,83.05
2022-11-13T01:27:21.250Z,74.13
2022-11-13T01:30:07.459Z,80.00
2022-11-13T01:32:52.916Z,74.22
2022-11-13T01:35:38.329Z,74.75
2022-11-13T01:38:23.355Z,76.40
2022-11-13T01:41:21.852Z,78.03
2022-11-13T01:44:13.827Z,94.95
2022-11-13T01:46:59.692Z,99.22
2022-11-13T01:49:45.446Z,104.40
2022-11-13T01:52:36.401Z,90.88
2022-11-13T01:55:21.626Z,116.73
2022-11-13T01:58:08.807Z,81.75
2022-11-13T02:00:54.251Z,86.70
2022-11-13T02:03:40.059Z,81.68
2022-11-13T02:06:29.078Z,85.65
2022-11-13T02:09:16.365Z,75.57
2022-11-13T02:12:01.925Z,78.25
2022-11-13T02:14:52.435Z,94.95
2022-11-13T02:17:44.734Z,79.65
2022-11-13T02:21:11.292Z,72.75
2022-11-13T02:24:01.591Z,84.20
2022-11-13T02:26:49.481Z,75.70
2022-11-13T02:29:34.833Z,70.88
2022-11-13T02:32:20.627Z,76.43
2022-11-13T02:35:05.952Z,76.95
2022-11-13T02:37:51.401Z,84.53
2022-11-13T02:40:37.597Z,69.85
2022-11-13T02:43:23.254Z,87.15
2022-11-13T02:46:08.623Z,96.70
2022-11-13T02:48:54.253Z,73.50
2022-11-13T02:51:39.820Z,69.15
2022-11-13T02:54:25.698Z,66.30
2022-11-13T02:57:10.883Z,67.43
2022-11-13T02:59:56.465Z,66.72
2022-11-13T03:02:42.064Z,70.20
2022-11-13T03:05:27.721Z,71.53
2022-11-13T03:08:13.310Z,68.00
2022-11-13T03:10:58.703Z,72.13
2022-11-13T03:13:44.175Z,121.63
2022-11-13T03:16:29.746Z,72.57
2022-11-13T03:19:15.125Z,78.72
2022-11-13T03:22:00.597Z,75.38
2022-11-13T03:24:45.715Z,71.13
2022-11-13T03:27:32.832Z,63.33
2022-11-13T03:30:18.521Z,63.28
2022-11-13T03:33:04.700Z,69.95
2022-11-13T03:35:49.961Z,69.72
2022-11-13T03:38:35.458Z,68.00
2022-11-13T03:41:22.120Z,75.40
2022-11-13T03:44:08.455Z,93.30
2022-11-13T03:46:53.742Z,75.25
2022-11-13T03:49:39.846Z,75.53
2022-11-13T03:52:25.229Z,70.97
2022-11-13T03:55:10.921Z,61.70
2022-11-13T03:57:55.987Z,76.43
2022-11-13T04:00:42.278Z,69.95
2022-11-13T04:03:27.767Z,89.82
2022-11-13T04:06:14.895Z,71.68
2022-11-13T04:09:00.274Z,72.18
2022-11-13T04:11:46.130Z,85.53
2022-11-13T04:14:31.478Z,73.18
2022-11-13T04:17:17.430Z,68.35
2022-11-13T04:20:02.689Z,66.30
2022-11-13T04:22:48.244Z,62.95
2022-11-13T04:25:33.563Z,64.03
2022-11-13T04:28:18.879Z,63.67
2022-11-13T04:31:04.149Z,78.35
2022-11-13T04:33:49.556Z,79.68
2022-11-13T04:36:34.713Z,72.82
2022-11-13T04:39:20.341Z,68.95
2022-11-13T04:42:24.083Z,69.82
2022-11-13T04:45:09.996Z,62.20
2022-11-13T04:47:55.794Z,62.75
2022-11-13T04:50:41.835Z,63.70
2022-11-13T04:53:27.168Z,64.40
2022-11-13T04:56:12.847Z,69.60
2022-11-13T04:58:58.473Z,72.82
2022-11-13T05:01:44.375Z,83.82
2022-11-13T05:04:30.023Z,79.57
2022-11-13T05:07:16.236Z,66.90
2022-11-13T05:10:02.196Z,61.92
2022-11-13T05:12:48.036Z,69.55
2022-11-13T05:15:33.379Z,58.00
2022-11-13T05:18:18.736Z,61.17
2022-11-13T05:21:06.292Z,124.32
2022-11-13T05:23:51.964Z,56.97
2022-11-13T05:26:38.474Z,49.58
2022-11-13T05:29:24.377Z,55.70
2022-11-13T05:32:09.788Z,44.38
2022-11-13T05:34:55.260Z,63.03
2022-11-13T05:37:40.503Z,52.75
2022-11-13T05:40:25.892Z,67.03
2022-11-13T05:43:11.393Z,63.72
2022-11-13T05:46:04.582Z,67.00
2022-11-13T05:48:54.937Z,86.47
2022-11-13T05:51:40.387Z,52.60
2022-11-13T05:54:25.734Z,58.63
2022-11-13T05:57:11.662Z,67.63
2022-11-13T05:59:57.318Z,56.47
2022-11-13T06:02:42.829Z,60.20
2022-11-13T06:05:27.872Z,61.13
2022-11-13T06:08:13.717Z,69.35
2022-11-13T06:11:05.492Z,77.60
2022-11-13T06:13:51.753Z,61.75
2022-11-13T06:16:38.235Z,58.13
2022-11-13T06:19:24.140Z,56.92
2022-11-13T06:22:09.372Z,58.55
2022-11-13T06:24:54.798Z,56.67
2022-11-13T06:27:40.569Z,52.47
2022-11-13T06:30:26.097Z,57.05
2022-11-13T06:33:11.604Z,58.65
2022-11-13T06:35:57.494Z,65.88
2022-11-13T06:38:43.329Z,71.25
2022-11-13T06:41:31.344Z,72.32
2022-11-13T06:44:16.679Z,74.95
2022-11-13T06:47:02.037Z,53.03
2022-11-13T06:49:47.351Z,58.50
2022-11-13T06:52:32.814Z,59.63
2022-11-13T06:55:17.841Z,52.72
2022-11-13T06:58:03.872Z,58.53
2022-11-13T07:00:49.949Z,59.95
2022-11-13T07:03:36.184Z,52.85
2022-11-13T07:06:23.440Z,70.75
2022-11-13T07:09:09.363Z,56.03
2022-11-13T07:11:55.018Z,58.00
2022-11-13T07:14:41.021Z,61.92
2022-11-13T07:17:28.584Z,53.80
2022-11-13T07:20:15.594Z,49.13
2022-11-13T07:23:02.788Z,50.72
2022-11-13T07:25:48.974Z,48.58
2022-11-13T07:28:34.444Z,51.17
2022-11-13T07:31:20.899Z,56.05
2022-11-13T07:34:06.138Z,52.65
2022-11-13T07:36:51.922Z,57.28
2022-11-13T07:39:37.077Z,51.83
2022-11-13T07:42:22.968Z,52.13
2022-11-13T07:45:08.275Z,51.80
2022-11-13T07:48:04.096Z,53.00
2022-11-13T07:50:49.888Z,55.65
2022-11-13T07:53:36.051Z,54.63
2022-11-13T07:56:23.401Z,67.38
2022-11-13T07:59:08.951Z,56.92
2022-11-13T08:01:54.427Z,61.17
2022-11-13T08:04:39.847Z,53.65
2022-11-13T08:07:25.388Z,46.97
2022-11-13T08:10:11.337Z,49.75
2022-11-13T08:13:02.341Z,52.45
2022-11-13T08:15:47.996Z,50.45
2022-11-13T08:18:33.652Z,47.10
2022-11-13T08:21:21.229Z,44.63
2022-11-13T08:24:06.911Z,47.63
2022-11-13T08:26:52.432Z,47.20
2022-11-13T08:29:37.888Z,62.75
2022-11-13T08:32:23.318Z,79.65
2022-11-13T08:35:08.798Z,57.42
2022-11-13T08:37:54.585Z,49.53
2022-11-13T08:40:39.737Z,57.53
2022-11-13T08:43:25.578Z,48.63
2022-11-13T08:46:11.116Z,47.13
2022-11-13T08:48:56.608Z,47.45
2022-11-13T08:51:42.327Z,53.63
2022-11-13T08:54:27.883Z,48.70
2022-11-13T08:57:13.310Z,54.15
2022-11-13T08:59:58.860Z,51.22
2022-11-13T09:02:44.677Z,48.83
2022-11-13T09:05:30.403Z,43.80
2022-11-13T09:08:16.088Z,45.05
2022-11-13T09:11:04.355Z,49.63
2022-11-13T09:13:53.290Z,45.58
2022-11-13T09:16:39.836Z,49.60
2022-11-13T09:19:25.278Z,52.67
2022-11-13T09:22:11.378Z,49.65
2022-11-13T09:24:56.825Z,61.80
2022-11-13T09:27:42.080Z,49.95
2022-11-13T09:30:28.435Z,66.32
2022-11-13T09:33:16.656Z,57.78
2022-11-13T09:36:03.006Z,56.35
2022-11-13T09:38:48.706Z,58.03
2022-11-13T09:41:44.893Z,51.03
2022-11-13T09:44:43.004Z,52.17
2022-11-13T09:47:32.305Z,55.40
2022-11-13T09:50:24.806Z,80.35
2022-11-13T09:53:12.268Z,57.03
2022-11-13T09:56:08.877Z,57.03
2022-11-13T09:59:16.711Z,55.58
2022-11-13T10:02:12.934Z,51.85
2022-11-13T10:05:27.191Z,51.63
2022-11-13T10:08:28.644Z,57.08
2022-11-13T10:11:38.241Z,54.95
2022-11-13T10:14:35.712Z,54.58
2022-11-13T10:17:29.521Z,58.53
2022-11-13T10:20:30.970Z,63.55
2022-11-13T10:23:25.644Z,55.15
2022-11-13T10:26:15.173Z,49.88
2022-11-13T10:29:12.656Z,53.92
2022-11-13T10:31:59.520Z,56.70
2022-11-13T10:34:52.312Z,50.67
2022-11-13T10:37:52.711Z,50.97
2022-11-13T10:40:40.160Z,66.47
2022-11-13T10:43:27.448Z,57.03
2022-11-13T10:46:18.903Z,74.35
2022-11-13T10:49:13.515Z,59.45
2022-11-13T10:52:01.171Z,57.97
2022-11-13T10:54:47.086Z,53.80
2022-11-13T10:57:34.786Z,53.42
2022-11-13T11:00:28.031Z,58.58
2022-11-13T11:03:14.809Z,50.08
2022-11-13T11:06:03.214Z,50.35
2022-11-13T11:08:49.068Z,60.53
2022-11-13T11:11:53.342Z,57.80
2022-11-13T11:15:01.487Z,62.33
2022-11-13T11:17:51.991Z,60.10
2022-11-13T11:20:51.602Z,60.15
2022-11-13T11:23:43.684Z,54.58
2022-11-13T11:26:36.764Z,54.25
2022-11-13T11:29:32.128Z,52.00
2022-11-13T11:32:26.095Z,60.78
2022-11-13T11:35:46.926Z,57.65
2022-11-13T11:38:38.331Z,52.55
2022-11-13T11:41:29.617Z,55.70
2022-11-13T11:44:22.840Z,60.35
2022-11-13T11:47:14.833Z,63.88
2022-11-13T11:50:01.066Z,57.58
2022-11-13T11:52:53.115Z,57.30
2022-11-13T11:56:00.163Z,57.00
2022-11-13T11:58:45.780Z,56.17
2022-11-13T12:01:37.032Z,55.88
2022-11-13T12:04:35.268Z,59.90
2022-11-13T12:07:58.035Z,66.43
2022-11-13T12:10:51.120Z,58.72
2022-11-13T12:13:55.522Z,55.05
2022-11-13T12:16:48.707Z,54.67
2022-11-13T12:19:52.411Z,53.15
2022-11-13T12:23:02.474Z,50.60
2022-11-13T12:26:14.249Z,58.92
2022-11-13T12:29:36.761Z,54.75
2022-11-13T12:32:39.636Z,71.88
2022-11-13T12:35:26.376Z,63.97
2022-11-13T12:38:39.353Z,52.50
2022-11-13T12:41:29.321Z,59.63
2022-11-13T12:44:25.868Z,63.17
2022-11-13T12:47:11.460Z,57.00
2022-11-13T12:50:01.754Z,55.25
2022-11-13T12:53:00.707Z,53.53
2022-11-13T12:55:56.799Z,62.10
2022-11-13T12:59:15.399Z,63.85
2022-11-13T13:02:06.949Z,74.18
2022-11-13T13:05:01.588Z,67.85
2022-11-13T13:08:14.711Z,66.53
2022-11-13T13:11:10.410Z,76.90
2022-11-13T13:14:24.903Z,73.97
2022-11-13T13:17:22.870Z,62.50
2022-11-13T13:20:21.027Z,59.28
2022-11-13T13:23:11.287Z,57.60
2022-11-13T13:26:17.041Z,57.28
2022-11-13T13:29:19.025Z,56.60
2022-11-13T13:32:23.819Z,68.40
2022-11-13T13:35:21.856Z,76.20
2022-11-13T13:38:55.219Z,69.28
2022-11-13T13:41:52.514Z,68.07
2022-11-13T13:44:40.457Z,59.20
2022-11-13T13:47:30.661Z,61.67
2022-11-13T13:50:25.732Z,55.60
2022-11-13T13:53:29.849Z,58.25
2022-11-13T13:56:15.638Z,54.25
2022-11-13T13:59:01.881Z,57.80
2022-11-13T14:01:59.171Z,61.05
2022-11-13T14:04:47.509Z,59.38
2022-11-13T14:07:35.480Z,72.90
2022-11-13T14:10:23.650Z,66.03
2022-11-13T14:13:13.113Z,66.60
2022-11-13T14:16:05.158Z,59.75
2022-11-13T14:18:50.695Z,61.85
2022-11-13T14:21:36.998Z,62.45
2022-11-13T14:24:59.522Z,64.72
2022-11-13T14:27:45.196Z,69.63
2022-11-13T14:30:31.267Z,72.72
2022-11-13T14:33:23.090Z,78.13
2022-11-13T14:36:08.663Z,80.88
2022-11-13T14:38:54.728Z,77.78
2022-11-13T14:41:52.540Z,77.70
2022-11-13T14:44:38.583Z,81.20
2022-11-13T14:47:29.367Z,84.93
2022-11-13T14:50:23.964Z,78.35
2022-11-13T14:53:10.577Z,79.30
2022-11-13T14:55:59.618Z,78.40
2022-11-13T14:58:48.829Z,82.32
2022-11-13T15:01:34.767Z,83.03
2022-11-13T15:04:20.014Z,96.45
2022-11-13T15:07:30.949Z,99.22
2022-11-13T15:10:19.072Z,109.90
2022-11-13T15:13:15.679Z,129.05
2022-11-13T15:16:01.366Z,105.50
2022-11-13T15:18:55.937Z,129.35
2022-11-13T15:21:44.903Z,105.90
2022-11-13T15:24:33.799Z,108.25
2022-11-13T15:27:19.385Z,111.90
2022-11-13T15:30:05.445Z,123.32
2022-11-13T15:32:54.072Z,120.93
2022-11-13T15:35:42.726Z,121.90
2022-11-13T15:38:28.296Z,131.63
2022-11-13T15:41:16.677Z,127.90
2022-11-13T15:44:09.921Z,122.38
2022-11-13T15:46:55.766Z,136.38
2022-11-13T15:49:56.689Z,131.85
2022-11-13T15:52:50.352Z,133.80
2022-11-13T15:55:36.007Z,132.43
2022-11-13T15:58:21.570Z,151.52
2022-11-13T16:01:06.906Z,133.68
2022-11-13T16:03:53.101Z,135.40
2022-11-13T16:06:38.699Z,137.77
2022-11-13T16:09:24.456Z,149.48
2022-11-13T16:12:12.955Z,123.30
2022-11-13T16:14:58.348Z,139.70
2022-11-13T16:17:47.046Z,141.35
2022-11-13T16:20:33.072Z,157.20
2022-11-13T16:23:18.956Z,167.20
2022-11-13T16:26:04.684Z,154.77
2022-11-13T16:29:12.748Z,146.13
2022-11-13T16:31:58.202Z,177.35
2022-11-13T16:34:44.427Z,217.02
2022-11-13T16:37:30.311Z,181.80
2022-11-13T16:40:20.246Z,169.50
2022-11-13T16:43:06.004Z,197.05
2022-11-13T16:45:52.482Z,190.90
2022-11-13T16:48:38.810Z,214.57
2022-11-13T16:51:24.841Z,203.80
2022-11-13T16:54:10.753Z,172.98
2022-11-13T16:56:56.158Z,147.45
2022-11-13T16:59:42.085Z,165.25
2022-11-13T17:02:27.700Z,162.63
2022-11-13T17:05:14.549Z,290.77
2022-11-13T17:08:01.742Z,231.38
2022-11-13T17:10:47.259Z,221.80
2022-11-13T17:13:32.683Z,247.43
2022-11-13T17:16:19.686Z,182.55
2022-11-13T17:19:06.643Z,162.82
2022-11-13T17:21:52.155Z,155.77
2022-11-13T17:24:38.550Z,144.20
2022-11-13T17:27:24.276Z,133.82
2022-11-13T17:30:11.661Z,150.27
2022-11-13T17:32:57.695Z,132.15
2022-11-13T17:35:46.416Z,157.95
2022-11-13T17:38:32.375Z,130.88
2022-11-13T17:41:18.441Z,137.82
2022-11-13T17:44:04.151Z,146.60
2022-11-13T17:46:49.660Z,138.50
2022-11-13T17:49:35.001Z,138.68
2022-11-13T17:52:20.216Z,119.47
2022-11-13T17:55:07.706Z,150.65
2022-11-13T17:57:53.258Z,208.30
2022-11-13T18:00:39.119Z,152.88
2022-11-13T18:03:24.306Z,130.57
2022-11-13T18:06:19.619Z,118.13
2022-11-13T18:09:06.381Z,121.60
2022-11-13T18:11:52.310Z,105.80
2022-11-13T18:14:37.965Z,110.40
2022-11-13T18:17:24.504Z,134.20
2022-11-13T18:20:10.616Z,334.85
2022-11-13T18:22:56.921Z,131.05
2022-11-13T18:25:42.317Z,178.88
2022-11-13T18:28:28.106Z,160.27
2022-11-13T18:31:16.615Z,124.68
2022-11-13T18:34:04.563Z,117.22
2022-11-13T18:36:49.903Z,109.78
2022-11-13T18:39:35.253Z,115.75
2022-11-13T18:42:20.448Z,103.70
2022-11-13T18:45:06.933Z,97.75
2022-11-13T18:47:52.221Z,108.30
2022-11-13T18:50:38.089Z,173.00
2022-11-13T18:53:23.290Z,206.95
2022-11-13T18:56:13.168Z,500.77
2022-11-13T18:59:00.073Z,206.40
2022-11-13T19:01:46.165Z,150.68
2022-11-13T19:04:31.486Z,113.35
2022-11-13T19:07:17.812Z,177.63
2022-11-13T19:10:03.864Z,172.40
2022-11-13T19:12:50.064Z,108.10
2022-11-13T19:15:36.730Z,94.28
2022-11-13T19:18:22.489Z,112.07
2022-11-13T19:21:10.036Z,103.35
2022-11-13T19:23:55.933Z,109.75
2022-11-13T19:26:42.487Z,96.97
2022-11-13T19:29:28.237Z,97.47
2022-11-13T19:32:13.496Z,97.28
2022-11-13T19:34:59.879Z,98.60
2022-11-13T19:37:45.509Z,91.20
2022-11-13T19:40:31.157Z,92.97
2022-11-13T19:43:16.879Z,94.82
2022-11-13T19:46:04.661Z,98.80
2022-11-13T19:48:50.471Z,102.93
2022-11-13T19:51:36.581Z,104.13
2022-11-13T19:54:22.142Z,119.75
2022-11-13T19:57:07.794Z,107.55
2022-11-13T19:59:53.070Z,109.53
2022-11-13T20:02:38.963Z,104.38
2022-11-13T20:05:24.296Z,109.15
2022-11-13T20:08:11.613Z,118.55
2022-11-13T20:11:07.368Z,121.45
2022-11-13T20:13:53.320Z,191.07
2022-11-13T20:16:38.958Z,146.55
2022-11-13T20:19:24.965Z,122.55
2022-11-13T20:22:10.138Z,125.82
2022-11-13T20:24:55.664Z,148.13
2022-11-13T20:27:46.992Z,169.48
2022-11-13T20:30:33.850Z,162.20
2022-11-13T20:33:22.680Z,161.95
2022-11-13T20:36:09.916Z,141.38
2022-11-13T20:38:57.140Z,136.68
2022-11-13T20:41:42.497Z,101.72
2022-11-13T20:44:28.112Z,100.78
2022-11-13T20:47:14.304Z,107.05
2022-11-13T20:49:59.647Z,117.72
2022-11-13T20:52:45.386Z,177.15
2022-11-13T20:55:30.965Z,153.38
2022-11-13T20:58:16.722Z,138.82
2022-11-13T21:01:04.263Z,157.95
2022-11-13T21:03:50.618Z,114.95
2022-11-13T21:06:36.142Z,124.20
2022-11-13T21:09:22.423Z,144.02
2022-11-13T21:12:09.027Z,135.63
2022-11-13T21:14:54.687Z,125.93
2022-11-13T21:17:39.972Z,92.85
2022-11-13T21:20:25.460Z,81.30
2022-11-13T21:23:11.282Z,93.10
2022-11-13T21:26:01.115Z,106.90
2022-11-13T21:28:46.787Z,105.10
2022-11-13T21:31:32.956Z,80.88
2022-11-13T21:34:18.435Z,87.90
2022-11-13T21:37:04.424Z,87.95
2022-11-13T21:39:50.168Z,92.22
2022-11-13T21:42:35.953Z,95.60
2022-11-13T21:45:21.096Z,94.40
2022-11-13T21:48:06.992Z,94.18
2022-11-13T21:50:52.604Z,97.53
2022-11-13T21:53:39.361Z,106.05
2022-11-13T21:56:26.814Z,96.88
2022-11-13T21:59:12.173Z,135.25
2022-11-13T22:01:58.906Z,146.20
2022-11-13T22:04:44.772Z,137.68
2022-11-13T22:07:30.535Z,117.03
2022-11-13T22:10:16.377Z,100.95
2022-11-13T22:13:01.741Z,122.57
2022-11-13T22:15:47.349Z,106.03
2022-11-13T22:18:32.883Z,149.25
2022-11-13T22:21:18.797Z,126.43
2022-11-13T22:24:04.429Z,130.38
2022-11-13T22:26:49.937Z,129.38
2022-11-13T22:29:35.731Z,124.82
2022-11-13T22:32:21.264Z,119.05
2022-11-13T22:35:07.126Z,190.10
2022-11-13T22:37:52.546Z,168.95
2022-11-13T22:40:37.650Z,179.25
2022-11-13T22:43:23.357Z,135.15
2022-11-13T22:46:16.594Z,188.45
2022-11-13T22:49:03.672Z,208.23
2022-11-13T22:51:48.819Z,236.55
2022-11-13T22:54:34.310Z,214.63
2022-11-13T22:57:19.491Z,190.20
2022-11-13T23:00:09.394Z,196.15
2022-11-13T23:02:54.925Z,179.25
2022-11-13T23:05:40.770Z,212.68
2022-11-13T23:08:26.161Z,202.15
2022-11-13T23:11:26.167Z,187.38
2022-11-13T23:14:12.930Z,320.60
2022-11-13T23:16:58.799Z,224.57
2022-11-13T23:19:44.266Z,205.20
2022-11-13T23:22:29.790Z,197.30
2022-11-13T23:25:14.883Z,185.10
2022-11-13T23:28:00.378Z,177.93
2022-11-13T23:30:45.592Z,142.35
2022-11-13T23:33:31.487Z,247.57
2022-11-13T23:36:18.277Z,119.95
2022-11-13T23:39:04.021Z,176.05
2022-11-13T23:41:49.176Z,165.27
2022-11-13T23:44:34.813Z,166.52
2022-11-13T23:47:20.493Z,178.57
2022-11-13T23:50:06.566Z,169.45
2022-11-13T23:52:51.799Z,146.70
2022-11-13T23:55:38.733Z,128.85
2022-11-13T23:58:24.363Z,171.18
